createdAt,value
2023-01-21T00:00:16.299Z,35.22
2023-01-21T00:02:43.422Z,31.55
2023-01-21T00:05:10.253Z,29.40
2023-01-21T00:07:37.192Z,25.37
2023-01-21T00:10:04.227Z,30.30
2023-01-21T00:12:31.100Z,34.63
2023-01-21T00:14:57.988Z,32.45
2023-01-21T00:17:24.889Z,32.58
2023-01-21T00:19:51.750Z,28.47
2023-01-21T00:22:18.722Z,32.13
2023-01-21T00:24:45.628Z,25.83
2023-01-21T00:27:12.438Z,35.65
2023-01-21T00:29:39.284Z,28.50
2023-01-21T00:32:06.087Z,27.33
2023-01-21T00:34:32.954Z,30.90
2023-01-21T00:36:59.812Z,31.55
2023-01-21T00:39:26.738Z,27.35
2023-01-21T00:41:53.650Z,30.85
2023-01-21T00:44:20.548Z,32.10
2023-01-21T00:46:47.343Z,28.13
2023-01-21T00:49:14.192Z,24.63
2023-01-21T00:51:41.086Z,29.08
2023-01-21T00:54:07.974Z,31.88
2023-01-21T00:56:34.808Z,24.47
2023-01-21T00:59:01.786Z,25.40
2023-01-21T01:01:30.599Z,23.42
2023-01-21T01:03:57.549Z,30.15
2023-01-21T01:06:24.733Z,26.38
2023-01-21T01:08:52.246Z,25.50
2023-01-21T01:11:21.775Z,25.35
2023-01-21T01:13:48.619Z,31.20
2023-01-21T01:16:16.622Z,26.05
2023-01-21T01:18:43.974Z,28.55
2023-01-21T01:21:13.536Z,29.50
2023-01-21T01:23:40.781Z,27.95
2023-01-21T01:26:10.562Z,33.17
2023-01-21T01:28:37.440Z,27.85
2023-01-21T01:31:06.851Z,28.13
2023-01-21T01:33:34.200Z,24.50
2023-01-21T01:36:10.901Z,29.50
2023-01-21T01:38:37.755Z,26.27
2023-01-21T01:41:05.065Z,23.17
2023-01-21T01:43:53.833Z,24.35
2023-01-21T01:46:21.573Z,28.23
2023-01-21T01:49:22.024Z,24.75
2023-01-21T01:51:54.785Z,28.40
2023-01-21T01:54:31.948Z,26.95
2023-01-21T01:57:02.576Z,26.45
2023-01-21T01:59:31.191Z,28.43
2023-01-21T02:02:00.848Z,27.02
2023-01-21T02:04:33.690Z,26.98
2023-01-21T02:07:00.874Z,32.72
2023-01-21T02:09:30.849Z,28.02
2023-01-21T02:12:01.499Z,24.80
2023-01-21T02:14:30.706Z,22.80
2023-01-21T02:17:12.114Z,30.85
2023-01-21T02:19:44.701Z,23.83
2023-01-21T02:22:30.475Z,26.63
2023-01-21T02:25:03.237Z,24.77
2023-01-21T02:27:36.244Z,26.63
2023-01-21T02:30:24.658Z,22.65
2023-01-21T02:33:13.762Z,21.10
2023-01-21T02:35:48.456Z,24.52
2023-01-21T02:38:32.586Z,24.60
2023-01-21T02:41:18.152Z,25.05
2023-01-21T02:44:13.526Z,24.52
2023-01-21T02:46:45.107Z,25.25
2023-01-21T02:49:20.934Z,24.85
2023-01-21T02:51:48.697Z,21.77
2023-01-21T02:54:41.613Z,24.02
2023-01-21T02:57:14.372Z,24.23
2023-01-21T02:59:47.458Z,25.98
2023-01-21T03:02:43.690Z,25.45
2023-01-21T03:05:45.004Z,24.60
2023-01-21T03:08:18.777Z,27.17
2023-01-21T03:10:55.351Z,25.10
2023-01-21T03:13:52.779Z,26.20
2023-01-21T03:16:43.629Z,19.77
2023-01-21T03:19:14.698Z,22.87
2023-01-21T03:21:42.332Z,23.25
2023-01-21T03:24:11.326Z,25.33
2023-01-21T03:26:52.715Z,24.05
2023-01-21T03:29:26.479Z,21.98
2023-01-21T03:31:58.286Z,25.10
2023-01-21T03:34:30.765Z,26.13
2023-01-21T03:37:10.111Z,28.25
2023-01-21T03:39:59.128Z,25.73
2023-01-21T03:42:27.353Z,25.38
2023-01-21T03:44:54.797Z,27.27
2023-01-21T03:47:28.903Z,23.02
2023-01-21T03:50:04.658Z,26.92
2023-01-21T03:52:32.137Z,25.70
2023-01-21T03:54:59.432Z,29.30
2023-01-21T03:57:26.262Z,27.20
2023-01-21T03:59:53.811Z,23.65
2023-01-21T04:02:21.217Z,26.02
2023-01-21T04:04:48.386Z,28.67
2023-01-21T04:07:16.050Z,26.95
2023-01-21T04:09:42.970Z,25.90
2023-01-21T04:12:10.837Z,26.17
2023-01-21T04:14:38.198Z,21.05
2023-01-21T04:17:05.306Z,26.52
2023-01-21T04:19:32.256Z,26.85
2023-01-21T04:21:59.488Z,29.73
2023-01-21T04:24:26.411Z,20.10
2023-01-21T04:26:53.333Z,24.50
2023-01-21T04:29:20.831Z,28.38
2023-01-21T04:31:48.482Z,29.95
2023-01-21T04:34:16.861Z,23.10
2023-01-21T04:36:43.834Z,23.58
2023-01-21T04:39:11.645Z,25.08
2023-01-21T04:41:38.460Z,24.70
2023-01-21T04:44:05.578Z,23.67
2023-01-21T04:46:32.471Z,29.10
2023-01-21T04:48:59.517Z,29.80
2023-01-21T04:51:26.352Z,27.95
2023-01-21T04:53:53.200Z,28.75
2023-01-21T04:56:20.054Z,27.92
2023-01-21T04:58:46.829Z,30.67
2023-01-21T05:01:13.815Z,26.55
2023-01-21T05:03:40.732Z,29.25
2023-01-21T05:06:07.673Z,23.42
2023-01-21T05:08:34.534Z,22.75
2023-01-21T05:11:01.388Z,29.70
2023-01-21T05:13:28.407Z,24.08
2023-01-21T05:15:55.270Z,27.60
2023-01-21T05:18:22.221Z,28.95
2023-01-21T05:20:49.015Z,25.00
2023-01-21T05:23:15.917Z,26.23
2023-01-21T05:25:42.846Z,22.95
2023-01-21T05:28:09.697Z,25.67
2023-01-21T05:30:39.200Z,26.17
2023-01-21T05:33:07.258Z,26.92
2023-01-21T05:35:35.155Z,24.97
2023-01-21T05:38:01.999Z,23.85
2023-01-21T05:40:28.997Z,22.67
2023-01-21T05:42:55.725Z,24.88
2023-01-21T05:45:22.803Z,21.92
2023-01-21T05:47:49.707Z,26.50
2023-01-21T05:50:16.873Z,26.45
2023-01-21T05:52:43.857Z,23.33
2023-01-21T05:55:13.393Z,24.67
2023-01-21T05:57:40.242Z,29.65
2023-01-21T06:00:07.904Z,28.10
2023-01-21T06:02:34.739Z,29.10
2023-01-21T06:05:01.544Z,30.70
2023-01-21T06:07:28.435Z,31.70
2023-01-21T06:09:55.268Z,26.83
2023-01-21T06:12:23.879Z,30.20
2023-01-21T06:14:51.683Z,29.98
2023-01-21T06:17:18.551Z,29.83
2023-01-21T06:19:45.409Z,32.58
2023-01-21T06:22:15.782Z,35.45
2023-01-21T06:24:45.407Z,33.20
2023-01-21T06:27:12.760Z,32.33
2023-01-21T06:29:39.677Z,33.70
2023-01-21T06:32:06.797Z,38.55
2023-01-21T06:34:33.766Z,35.75
2023-01-21T06:37:00.637Z,34.43
2023-01-21T06:39:27.527Z,43.90
2023-01-21T06:41:55.437Z,35.67
2023-01-21T06:44:27.920Z,34.38
2023-01-21T06:47:02.231Z,44.40
2023-01-21T06:49:29.347Z,35.47
2023-01-21T06:51:56.638Z,38.08
2023-01-21T06:54:23.585Z,34.08
2023-01-21T06:56:50.334Z,54.35
2023-01-21T06:59:17.215Z,49.00
2023-01-21T07:01:44.137Z,43.27
2023-01-21T07:04:11.125Z,42.80
2023-01-21T07:06:38.838Z,43.85
2023-01-21T07:09:07.141Z,37.80
2023-01-21T07:11:34.812Z,55.67
2023-01-21T07:14:01.832Z,40.07
2023-01-21T07:16:28.748Z,38.65
2023-01-21T07:18:58.543Z,41.55
2023-01-21T07:21:25.844Z,42.58
2023-01-21T07:23:53.982Z,40.90
2023-01-21T07:26:21.166Z,46.07
2023-01-21T07:28:51.217Z,51.58
2023-01-21T07:31:18.103Z,40.55
2023-01-21T07:33:47.909Z,53.65
2023-01-21T07:36:14.843Z,43.45
2023-01-21T07:38:41.712Z,40.83
2023-01-21T07:41:08.587Z,44.95
2023-01-21T07:43:35.464Z,38.25
2023-01-21T07:46:02.389Z,50.78
2023-01-21T07:48:29.368Z,43.35
2023-01-21T07:51:02.670Z,50.80
2023-01-21T07:53:29.625Z,40.47
2023-01-21T07:55:56.533Z,38.28
2023-01-21T07:58:27.455Z,65.57
2023-01-21T08:00:54.255Z,62.45
2023-01-21T08:03:23.379Z,45.97
2023-01-21T08:05:52.206Z,40.95
2023-01-21T08:08:19.596Z,42.83
2023-01-21T08:10:52.653Z,49.33
2023-01-21T08:13:19.891Z,48.30
2023-01-21T08:15:51.288Z,45.00
2023-01-21T08:18:19.139Z,36.90
2023-01-21T08:20:46.067Z,40.20
2023-01-21T08:23:12.961Z,48.78
2023-01-21T08:25:39.980Z,37.45
2023-01-21T08:28:06.913Z,39.93
2023-01-21T08:30:34.078Z,42.03
2023-01-21T08:33:01.069Z,43.50
2023-01-21T08:35:27.966Z,38.60
2023-01-21T08:37:57.683Z,42.90
2023-01-21T08:40:26.558Z,41.93
2023-01-21T08:42:59.760Z,43.88
2023-01-21T08:45:27.661Z,45.08
2023-01-21T08:47:55.201Z,40.38
2023-01-21T08:50:22.432Z,43.60
2023-01-21T08:52:56.017Z,42.80
2023-01-21T08:55:26.919Z,39.05
2023-01-21T08:57:54.807Z,36.58
2023-01-21T09:00:23.817Z,46.80
2023-01-21T09:02:51.744Z,38.60
2023-01-21T09:05:19.739Z,43.60
2023-01-21T09:07:47.217Z,45.58
2023-01-21T09:10:37.392Z,36.63
2023-01-21T09:13:08.632Z,45.70
2023-01-21T09:15:42.985Z,41.38
2023-01-21T09:18:10.061Z,37.97
2023-01-21T09:20:37.949Z,46.80
2023-01-21T09:23:24.972Z,42.55
2023-01-21T09:26:03.971Z,39.35
2023-01-21T09:28:33.339Z,36.65
2023-01-21T09:31:03.891Z,39.70
2023-01-21T09:33:35.046Z,38.13
2023-01-21T09:36:04.253Z,43.53
2023-01-21T09:38:31.062Z,32.42
2023-01-21T09:41:21.993Z,40.20
2023-01-21T09:43:57.564Z,32.00
2023-01-21T09:46:34.916Z,39.78
2023-01-21T09:49:04.460Z,38.13
2023-01-21T09:51:42.888Z,39.08
2023-01-21T09:54:19.473Z,35.20
2023-01-21T09:57:27.461Z,36.30
2023-01-21T10:00:08.072Z,38.47
2023-01-21T10:03:04.668Z,38.28
2023-01-21T10:05:37.399Z,39.40
2023-01-21T10:08:38.232Z,39.00
2023-01-21T10:11:32.736Z,40.53
2023-01-21T10:14:14.709Z,37.83
2023-01-21T10:16:48.649Z,43.97
2023-01-21T10:19:22.734Z,43.67
2023-01-21T10:21:54.147Z,43.13
2023-01-21T10:24:27.312Z,43.90
2023-01-21T10:26:57.393Z,49.67
2023-01-21T10:29:27.040Z,45.25
2023-01-21T10:32:01.563Z,32.90
2023-01-21T10:34:43.787Z,45.60
2023-01-21T10:37:43.139Z,44.43
2023-01-21T10:40:43.398Z,45.95
2023-01-21T10:43:18.507Z,40.80
2023-01-21T10:46:05.557Z,40.55
2023-01-21T10:48:54.258Z,42.53
2023-01-21T10:51:29.841Z,39.80
2023-01-21T10:54:19.975Z,40.05
2023-01-21T10:56:50.795Z,40.03
2023-01-21T10:59:23.401Z,39.88
2023-01-21T11:02:13.951Z,41.53
2023-01-21T11:04:42.047Z,36.43
2023-01-21T11:07:13.004Z,45.97
2023-01-21T11:09:43.578Z,39.42
2023-01-21T11:12:18.876Z,38.63
2023-01-21T11:14:58.084Z,33.42
2023-01-21T11:17:37.945Z,37.93
2023-01-21T11:20:16.916Z,36.33
2023-01-21T11:22:45.745Z,33.05
2023-01-21T11:25:36.579Z,31.67
2023-01-21T11:28:05.314Z,31.83
2023-01-21T11:30:51.056Z,37.63
2023-01-21T11:33:26.722Z,28.77
2023-01-21T11:35:55.410Z,32.40
2023-01-21T11:38:36.034Z,33.28
2023-01-21T11:41:11.064Z,33.75
2023-01-21T11:43:51.227Z,34.27
2023-01-21T11:46:41.642Z,37.75
2023-01-21T11:49:08.637Z,41.03
2023-01-21T11:51:36.948Z,37.40
2023-01-21T11:54:14.487Z,34.95
2023-01-21T11:56:54.792Z,40.13
2023-01-21T11:59:24.615Z,38.00
2023-01-21T12:02:13.555Z,35.80
2023-01-21T12:04:48.534Z,38.90
2023-01-21T12:07:25.520Z,33.63
2023-01-21T12:10:04.795Z,30.43
2023-01-21T12:12:49.125Z,33.10
2023-01-21T12:15:42.780Z,34.63
2023-01-21T12:18:24.950Z,35.90
2023-01-21T12:21:21.203Z,40.95
2023-01-21T12:24:06.437Z,35.33
2023-01-21T12:26:50.668Z,33.10
2023-01-21T12:29:49.645Z,31.40
2023-01-21T12:32:26.815Z,31.23
2023-01-21T12:34:53.923Z,33.67
2023-01-21T12:37:38.109Z,30.03
2023-01-21T12:40:37.965Z,28.05
2023-01-21T12:43:21.195Z,33.75
2023-01-21T12:46:02.519Z,29.85
2023-01-21T12:48:40.865Z,37.55
2023-01-21T12:51:15.198Z,32.10
2023-01-21T12:53:53.662Z,33.05
2023-01-21T12:56:28.798Z,30.33
2023-01-21T12:59:08.180Z,31.00
2023-01-21T13:01:56.666Z,30.83
2023-01-21T13:04:38.731Z,29.60
2023-01-21T13:07:53.891Z,34.75
2023-01-21T13:10:31.086Z,29.50
2023-01-21T13:13:15.351Z,37.40
2023-01-21T13:15:45.587Z,31.10
2023-01-21T13:18:18.839Z,31.50
2023-01-21T13:20:54.721Z,34.53
2023-01-21T13:23:42.270Z,35.03
2023-01-21T13:26:15.322Z,36.22
2023-01-21T13:28:48.455Z,32.05
2023-01-21T13:31:28.640Z,32.13
2023-01-21T13:34:04.549Z,30.90
2023-01-21T13:36:55.688Z,24.58
2023-01-21T13:39:52.169Z,33.53
2023-01-21T13:42:39.304Z,30.23
2023-01-21T13:45:43.468Z,34.90
2023-01-21T13:48:45.575Z,33.08
2023-01-21T13:51:22.421Z,30.85
2023-01-21T13:54:13.601Z,30.02
2023-01-21T13:57:08.106Z,33.72
2023-01-21T13:59:52.389Z,29.43
2023-01-21T14:02:35.897Z,32.83
2023-01-21T14:05:15.477Z,34.25
2023-01-21T14:07:51.130Z,28.25
2023-01-21T14:10:43.059Z,28.77
2023-01-21T14:14:00.238Z,24.73
2023-01-21T14:16:34.144Z,26.15
2023-01-21T14:19:28.401Z,28.83
2023-01-21T14:22:13.693Z,25.20
2023-01-21T14:24:54.627Z,28.40
2023-01-21T14:27:27.608Z,26.53
2023-01-21T14:30:01.958Z,22.65
2023-01-21T14:32:49.155Z,23.50
2023-01-21T14:35:21.804Z,26.40
2023-01-21T14:38:13.643Z,26.92
2023-01-21T14:40:51.950Z,26.27
2023-01-21T14:43:40.653Z,25.05
2023-01-21T14:46:29.646Z,23.00
2023-01-21T14:49:10.645Z,25.55
2023-01-21T14:51:47.927Z,28.00
2023-01-21T14:54:27.214Z,23.17
2023-01-21T14:57:01.696Z,24.95
2023-01-21T14:59:41.941Z,23.10
2023-01-21T15:02:42.112Z,25.40
2023-01-21T15:05:12.503Z,23.52
2023-01-21T15:07:41.696Z,30.20
2023-01-21T15:10:20.305Z,26.73
2023-01-21T15:12:55.004Z,25.38
2023-01-21T15:15:40.042Z,21.85
2023-01-21T15:18:09.819Z,21.63
2023-01-21T15:20:42.810Z,26.30
2023-01-21T15:23:27.449Z,19.85
2023-01-21T15:26:30.851Z,22.67
2023-01-21T15:29:34.553Z,24.45
2023-01-21T15:32:32.322Z,20.50
2023-01-21T15:35:03.522Z,24.93
2023-01-21T15:37:36.168Z,30.38
2023-01-21T15:40:17.130Z,18.85
2023-01-21T15:42:55.423Z,19.20
2023-01-21T15:46:01.037Z,19.13
2023-01-21T15:48:41.667Z,28.50
2023-01-21T15:51:40.145Z,20.45
2023-01-21T15:54:38.751Z,23.50
2023-01-21T15:57:23.821Z,18.05
2023-01-21T16:00:07.484Z,19.80
2023-01-21T16:02:45.369Z,28.07
2023-01-21T16:05:22.585Z,21.45
2023-01-21T16:08:18.801Z,19.85
2023-01-21T16:11:09.394Z,17.58
2023-01-21T16:13:59.284Z,18.40
2023-01-21T16:16:55.516Z,19.33
2023-01-21T16:19:37.238Z,18.83
2023-01-21T16:22:07.946Z,19.13
2023-01-21T16:24:40.611Z,21.00
2023-01-21T16:27:23.519Z,17.85
2023-01-21T16:29:58.087Z,18.30
2023-01-21T16:32:25.643Z,19.35
2023-01-21T16:34:52.629Z,17.55
2023-01-21T16:37:22.947Z,20.50
2023-01-21T16:39:54.472Z,21.33
2023-01-21T16:42:30.546Z,18.57
2023-01-21T16:44:58.891Z,21.25
2023-01-21T16:47:30.663Z,22.48
2023-01-21T16:49:57.882Z,20.00
2023-01-21T16:52:25.187Z,20.27
2023-01-21T16:54:54.974Z,19.07
2023-01-21T16:57:40.097Z,16.52
2023-01-21T17:00:24.813Z,22.08
2023-01-21T17:02:51.991Z,15.55
2023-01-21T17:05:19.671Z,20.42
2023-01-21T17:07:56.202Z,19.53
2023-01-21T17:10:41.017Z,17.85
2023-01-21T17:13:16.290Z,19.95
2023-01-21T17:16:21.686Z,17.27
2023-01-21T17:18:52.473Z,17.40
2023-01-21T17:21:28.041Z,21.40
2023-01-21T17:23:58.970Z,16.38
2023-01-21T17:26:29.755Z,22.58
2023-01-21T17:29:28.507Z,19.23
2023-01-21T17:32:07.510Z,20.95
2023-01-21T17:34:38.148Z,24.53
2023-01-21T17:37:43.888Z,21.02
2023-01-21T17:40:42.579Z,24.65
2023-01-21T17:43:22.651Z,24.95
2023-01-21T17:45:51.526Z,21.95
2023-01-21T17:48:23.196Z,24.10
2023-01-21T17:50:50.457Z,29.50
2023-01-21T17:53:26.342Z,29.33
2023-01-21T17:56:05.390Z,26.35
2023-01-21T17:58:32.294Z,25.85
2023-01-21T18:01:04.484Z,21.00
2023-01-21T18:03:31.232Z,19.95
2023-01-21T18:05:58.624Z,17.55
2023-01-21T18:08:26.085Z,17.10
2023-01-21T18:10:52.965Z,20.30
2023-01-21T18:13:21.667Z,23.30
2023-01-21T18:15:51.873Z,25.83
2023-01-21T18:18:28.489Z,20.40
2023-01-21T18:20:55.802Z,20.23
2023-01-21T18:23:23.033Z,22.90
2023-01-21T18:25:54.817Z,25.63
2023-01-21T18:28:24.485Z,20.42
2023-01-21T18:30:54.462Z,24.70
2023-01-21T18:33:22.300Z,29.27
2023-01-21T18:35:51.031Z,51.92
2023-01-21T18:38:32.600Z,45.30
2023-01-21T18:41:00.459Z,25.08
2023-01-21T18:43:27.402Z,64.50
2023-01-21T18:45:54.860Z,40.72
2023-01-21T18:48:27.877Z,30.35
2023-01-21T18:50:54.892Z,24.50
2023-01-21T18:53:22.194Z,23.85
2023-01-21T18:55:53.809Z,39.28
2023-01-21T18:58:21.044Z,42.47
2023-01-21T19:00:48.709Z,25.60
2023-01-21T19:03:16.197Z,23.57
2023-01-21T19:05:47.793Z,37.15
2023-01-21T19:08:22.060Z,29.95
2023-01-21T19:10:48.953Z,36.08
2023-01-21T19:13:15.917Z,48.78
2023-01-21T19:15:43.234Z,48.27
2023-01-21T19:18:11.954Z,50.97
2023-01-21T19:20:42.025Z,43.47
2023-01-21T19:23:17.931Z,46.00
2023-01-21T19:25:57.774Z,35.10
2023-01-21T19:28:25.324Z,38.17
2023-01-21T19:30:55.726Z,52.22
2023-01-21T19:33:23.485Z,68.45
2023-01-21T19:35:56.119Z,32.42
2023-01-21T19:38:23.856Z,38.35
2023-01-21T19:40:50.958Z,38.73
2023-01-21T19:43:22.964Z,61.88
2023-01-21T19:45:51.968Z,53.75
2023-01-21T19:48:21.159Z,32.42
2023-01-21T19:50:48.500Z,23.05
2023-01-21T19:53:17.596Z,27.27
2023-01-21T19:55:46.518Z,27.73
2023-01-21T19:58:20.195Z,49.38
2023-01-21T20:00:49.527Z,41.75
2023-01-21T20:03:18.690Z,30.13
2023-01-21T20:05:48.124Z,33.70
2023-01-21T20:08:22.096Z,31.55
2023-01-21T20:10:49.097Z,33.15
2023-01-21T20:13:16.735Z,39.17
2023-01-21T20:15:45.568Z,49.47
2023-01-21T20:18:22.888Z,30.67
2023-01-21T20:20:49.990Z,35.80
2023-01-21T20:23:17.751Z,49.72
2023-01-21T20:25:47.374Z,31.80
2023-01-21T20:28:20.967Z,22.30
2023-01-21T20:30:49.546Z,40.20
2023-01-21T20:33:19.191Z,36.55
2023-01-21T20:35:56.899Z,28.83
2023-01-21T20:38:30.324Z,31.55
2023-01-21T20:40:58.225Z,32.72
2023-01-21T20:43:25.270Z,42.50
2023-01-21T20:45:53.413Z,31.58
2023-01-21T20:48:25.787Z,33.38
2023-01-21T20:50:53.241Z,24.05
2023-01-21T20:53:20.489Z,38.95
2023-01-21T20:55:50.907Z,22.73
2023-01-21T20:58:22.075Z,30.30
2023-01-21T21:00:49.551Z,36.30
2023-01-21T21:03:18.364Z,28.45
2023-01-21T21:05:49.456Z,28.75
2023-01-21T21:08:21.157Z,35.63
2023-01-21T21:10:50.975Z,30.77
2023-01-21T21:13:18.018Z,41.47
2023-01-21T21:15:46.623Z,32.92
2023-01-21T21:18:14.717Z,33.22
2023-01-21T21:20:41.972Z,34.37
2023-01-21T21:23:14.143Z,28.90
2023-01-21T21:25:43.803Z,32.78
2023-01-21T21:28:17.392Z,24.60
2023-01-21T21:30:45.226Z,25.55
2023-01-21T21:33:22.537Z,23.60
2023-01-21T21:35:50.010Z,29.38
2023-01-21T21:38:21.963Z,24.45
2023-01-21T21:40:53.226Z,20.15
2023-01-21T21:43:33.561Z,24.50
2023-01-21T21:46:30.627Z,27.83
2023-01-21T21:48:57.561Z,23.02
2023-01-21T21:51:24.557Z,48.95
2023-01-21T21:53:51.662Z,34.80
2023-01-21T21:56:23.792Z,23.58
2023-01-21T21:58:51.445Z,23.87
2023-01-21T22:01:23.844Z,31.85
2023-01-21T22:03:51.188Z,20.88
2023-01-21T22:06:20.179Z,34.17
2023-01-21T22:08:48.221Z,20.98
2023-01-21T22:11:19.671Z,36.53
2023-01-21T22:17:49.598Z,17.92
2023-01-21T22:20:16.527Z,25.52
2023-01-21T22:22:43.413Z,41.88
2023-01-21T22:25:17.081Z,32.53
2023-01-21T22:27:45.554Z,37.15
2023-01-21T22:30:12.999Z,20.65
2023-01-21T22:32:48.445Z,19.77
2023-01-21T22:35:15.857Z,29.30
2023-01-21T22:37:48.881Z,23.80
2023-01-21T22:40:19.458Z,19.58
2023-01-21T22:43:03.112Z,22.90
2023-01-21T22:45:33.144Z,22.42
2023-01-21T22:48:30.007Z,21.60
2023-01-21T22:51:04.519Z,17.07
2023-01-21T22:53:34.981Z,15.80
2023-01-21T22:56:04.512Z,18.23
2023-01-21T22:58:56.407Z,20.00
2023-01-21T23:01:57.826Z,18.52
2023-01-21T23:04:41.062Z,20.27
2023-01-21T23:07:10.312Z,17.10
2023-01-21T23:09:39.306Z,19.08
2023-01-21T23:12:08.833Z,21.88
2023-01-21T23:14:35.693Z,18.23
2023-01-21T23:17:03.218Z,21.33
2023-01-21T23:19:30.069Z,13.90
2023-01-21T23:21:56.830Z,19.92
2023-01-21T23:24:23.856Z,16.75
2023-01-21T23:26:50.720Z,15.10
2023-01-21T23:29:17.496Z,18.30
2023-01-21T23:31:44.437Z,15.80
2023-01-21T23:34:14.600Z,15.82
2023-01-21T23:36:41.547Z,14.43
2023-01-21T23:39:08.352Z,17.33
2023-01-21T23:41:35.197Z,15.57
2023-01-21T23:44:02.024Z,17.65
2023-01-21T23:46:29.021Z,17.17
2023-01-21T23:48:55.908Z,13.05
2023-01-21T23:51:22.805Z,18.73
2023-01-21T23:53:49.820Z,17.50
2023-01-21T23:56:20.776Z,14.80
2023-01-21T23:58:48.486Z,16.02
